createdAt,value
2019-04-19T00:02:00.749Z,64.00
2019-04-19T00:04:26.496Z,65.30
2019-04-19T00:07:09.428Z,65.90
2019-04-19T00:09:43.661Z,66.40
2019-04-19T00:12:18.026Z,65.50
2019-04-19T00:14:35.936Z,66.00
2019-04-19T00:17:13.965Z,66.40
2019-04-19T00:19:55.583Z,68.40
2019-04-19T00:22:28.667Z,66.80
2019-04-19T00:24:43.787Z,68.10
2019-04-19T00:27:14.476Z,68.10
2019-04-19T00:29:54.437Z,67.50
2019-04-19T00:32:33.936Z,68.40
2019-04-19T00:34:50.428Z,66.70
2019-04-19T00:37:20.999Z,67.60
2019-04-19T00:40:18.192Z,67.30
2019-04-19T00:43:03.655Z,66.20
2019-04-19T00:46:00.907Z,68.00
2019-04-19T00:48:29.615Z,66.40
2019-04-19T00:50:59.781Z,69.50
2019-04-19T00:53:28.650Z,70.10
2019-04-19T00:55:59.874Z,69.60
2019-04-19T00:58:26.355Z,70.40
2019-04-19T01:00:57.905Z,71.10
2019-04-19T01:03:34.496Z,70.70
2019-04-19T01:06:05.594Z,70.70
2019-04-19T01:08:32.471Z,69.80
2019-04-19T01:11:17.986Z,71.80
2019-04-19T01:13:51.402Z,71.00
2019-04-19T01:16:20.474Z,72.90
2019-04-19T01:18:49.350Z,71.90
2019-04-19T01:21:13.185Z,71.80
2019-04-19T01:23:48.071Z,72.30
2019-04-19T01:26:17.083Z,73.30
2019-04-19T01:28:55.638Z,71.20
2019-04-19T01:31:24.601Z,71.90
2019-04-19T01:33:52.738Z,72.60
2019-04-19T01:36:28.748Z,74.80
2019-04-19T01:39:16.592Z,74.90
2019-04-19T01:41:43.552Z,74.90
2019-04-19T01:44:24.070Z,75.00
2019-04-19T01:47:29.433Z,75.90
2019-04-19T01:50:13.265Z,76.00
2019-04-19T01:52:52.952Z,76.40
2019-04-19T01:55:12.359Z,76.10
2019-04-19T01:57:36.635Z,76.90
2019-04-19T02:00:13.074Z,77.70
2019-04-19T02:02:48.150Z,77.90
2019-04-19T02:05:17.703Z,77.50
2019-04-19T02:07:50.817Z,76.60
2019-04-19T02:11:24.707Z,76.90
2019-04-19T02:13:54.074Z,78.10
2019-04-19T02:16:22.799Z,77.40
2019-04-19T02:18:55.552Z,78.30
2019-04-19T02:21:28.998Z,79.30
2019-04-19T02:23:59.025Z,78.00
2019-04-19T02:26:28.029Z,79.10
2019-04-19T02:29:07.475Z,79.50
2019-04-19T02:31:53.899Z,81.50
2019-04-19T02:34:35.283Z,82.90
2019-04-19T02:39:56.188Z,80.40
2019-04-19T02:47:30.409Z,79.90
2019-04-19T02:49:54.527Z,82.60
2019-04-19T02:55:14.348Z,82.40
2019-04-19T02:57:59.237Z,82.70
2019-04-19T03:03:21.035Z,84.70
2019-04-19T03:05:50.555Z,86.20
2019-04-19T03:08:04.473Z,85.80
2019-04-19T03:10:49.918Z,86.90
2019-04-19T03:13:21.624Z,86.30
2019-04-19T03:15:55.749Z,86.80
2019-04-19T03:18:31.765Z,87.40
2019-04-19T03:20:55.516Z,87.50
2019-04-19T03:23:26.205Z,87.90
2019-04-19T03:25:58.952Z,88.20
2019-04-19T03:28:31.193Z,89.10
2019-04-19T03:31:38.502Z,89.50
2019-04-19T03:33:52.992Z,87.60
2019-04-19T03:36:18.342Z,88.10
2019-04-19T03:38:43.105Z,89.00
2019-04-19T03:41:38.861Z,88.90
2019-04-19T03:44:17.136Z,88.90
2019-04-19T03:46:52.741Z,89.60
2019-04-19T03:49:29.416Z,90.20
2019-04-19T03:51:59.815Z,89.80
2019-04-19T03:54:23.649Z,90.40
2019-04-19T03:56:59.225Z,90.30
2019-04-19T03:59:09.758Z,90.50
2019-04-19T04:01:45.461Z,90.90
2019-04-19T04:04:20.103Z,90.40
2019-04-19T04:06:45.938Z,90.30
2019-04-19T04:09:33.279Z,90.90
2019-04-19T04:12:32.450Z,91.40
2019-04-19T04:15:07.266Z,91.20
2019-04-19T04:17:28.927Z,92.20
2019-04-19T04:20:00.789Z,91.70
2019-04-19T04:22:37.122Z,92.50
2019-04-19T04:25:11.653Z,92.20
2019-04-19T04:27:46.373Z,92.30
2019-04-19T04:30:18.549Z,92.40
2019-04-19T04:32:53.730Z,92.90
2019-04-19T04:35:29.372Z,92.30
2019-04-19T04:37:58.661Z,92.50
2019-04-19T04:40:17.348Z,92.60
2019-04-19T04:43:04.150Z,92.40
2019-04-19T04:45:38.836Z,92.50
2019-04-19T04:48:14.580Z,91.80
2019-04-19T04:51:15.897Z,91.20
2019-04-19T04:53:55.192Z,91.60
2019-04-19T04:56:45.766Z,92.20
2019-04-19T04:59:11.410Z,92.30
2019-04-19T05:01:49.452Z,91.90
2019-04-19T05:04:24.031Z,91.40
2019-04-19T05:07:05.011Z,91.60
2019-04-19T05:09:45.296Z,91.80
2019-04-19T05:12:21.339Z,91.60
2019-04-19T05:14:46.402Z,91.50
2019-04-19T05:17:33.259Z,91.20
2019-04-19T05:19:59.124Z,91.30
2019-04-19T05:22:22.457Z,90.00
2019-04-19T05:25:09.566Z,90.90
2019-04-19T05:27:33.349Z,90.60
2019-04-19T05:29:49.903Z,90.30
2019-04-19T05:32:25.022Z,90.50
2019-04-19T05:35:06.969Z,91.00
2019-04-19T05:37:54.313Z,91.00
2019-04-19T05:40:28.989Z,90.00
2019-04-19T05:43:04.013Z,90.10
2019-04-19T05:45:42.992Z,87.30
2019-04-19T05:48:00.607Z,88.50
2019-04-19T05:50:39.695Z,88.30
2019-04-19T05:53:10.015Z,89.40
2019-04-19T05:55:30.303Z,88.40
2019-04-19T05:58:11.436Z,90.00
2019-04-19T06:00:48.577Z,85.80
2019-04-19T06:03:17.695Z,79.50
2019-04-19T06:06:08.194Z,67.50
2019-04-19T06:08:18.572Z,60.80
2019-04-19T06:10:49.761Z,50.70
2019-04-19T06:13:15.936Z,44.30
2019-04-19T06:16:05.655Z,43.60
2019-04-19T06:18:42.508Z,42.00
2019-04-19T06:23:55.490Z,32.50
2019-04-19T06:26:56.586Z,31.30
2019-04-19T06:29:06.238Z,31.00
2019-04-19T06:31:31.458Z,29.90
2019-04-19T06:34:02.755Z,27.40
2019-04-19T06:36:15.793Z,27.50
2019-04-19T06:38:46.975Z,27.20
2019-04-19T06:41:22.109Z,25.30
2019-04-19T06:44:01.423Z,24.90
2019-04-19T06:46:36.061Z,23.90
2019-04-19T06:49:03.120Z,24.40
2019-04-19T06:51:35.627Z,24.20
2019-04-19T06:54:03.987Z,24.30
2019-04-19T06:56:37.208Z,26.30
2019-04-19T06:59:13.862Z,25.70
2019-04-19T07:01:43.739Z,24.20
2019-04-19T07:04:09.209Z,24.40
2019-04-19T07:07:02.035Z,24.30
2019-04-19T07:09:38.802Z,24.30
2019-04-19T07:12:09.173Z,23.10
2019-04-19T07:14:23.173Z,24.10
2019-04-19T07:17:11.213Z,23.60
2019-04-19T07:19:38.642Z,24.10
2019-04-19T07:22:09.733Z,22.40
2019-04-19T07:24:51.228Z,22.60
2019-04-19T07:27:15.128Z,22.60
2019-04-19T07:29:31.608Z,21.40
2019-04-19T07:32:02.197Z,21.60
2019-04-19T07:34:50.666Z,22.00
2019-04-19T07:37:18.498Z,22.80
2019-04-19T07:40:09.637Z,22.10
2019-04-19T07:42:32.019Z,23.40
2019-04-19T07:44:54.481Z,22.50
2019-04-19T07:47:40.139Z,23.40
2019-04-19T07:50:11.953Z,23.20
2019-04-19T07:52:41.391Z,21.20
2019-04-19T07:55:12.712Z,21.00
2019-04-19T07:58:16.995Z,21.40
2019-04-19T08:03:17.291Z,21.90
2019-04-19T08:05:46.467Z,22.10
2019-04-19T08:08:42.111Z,20.60
2019-04-19T08:13:31.572Z,19.80
2019-04-19T08:16:01.392Z,20.80
2019-04-19T08:28:20.409Z,22.10
2019-04-19T08:30:48.724Z,20.70
2019-04-19T08:33:15.042Z,20.60
2019-04-19T08:35:51.399Z,20.60
2019-04-19T08:38:21.262Z,21.40
2019-04-19T08:41:02.129Z,21.10
2019-04-19T08:43:41.626Z,19.70
2019-04-19T08:46:15.557Z,20.80
2019-04-19T08:48:59.396Z,19.90
2019-04-19T08:51:45.599Z,20.50
2019-04-19T08:54:37.064Z,19.80
2019-04-19T08:56:57.405Z,19.60
2019-04-19T08:59:59.431Z,19.40
2019-04-19T09:02:16.452Z,20.10
2019-04-19T09:04:43.959Z,20.90
2019-04-19T09:10:10.377Z,19.80
2019-04-19T09:12:23.722Z,19.70
2019-04-19T09:14:57.002Z,19.50
2019-04-19T09:17:45.758Z,19.50
2019-04-19T09:22:34.301Z,19.60
2019-04-19T09:24:56.044Z,19.40
2019-04-19T09:27:41.993Z,20.30
2019-04-19T09:30:11.581Z,18.80
2019-04-19T09:32:30.057Z,17.80
2019-04-19T09:35:02.429Z,17.80
2019-04-19T09:37:41.699Z,18.10
2019-04-19T09:40:08.320Z,19.30
2019-04-19T09:42:44.674Z,18.60
2019-04-19T09:45:08.748Z,18.60
2019-04-19T09:47:39.871Z,19.00
2019-04-19T09:50:27.908Z,18.30
2019-04-19T09:53:10.951Z,18.00
2019-04-19T09:55:39.391Z,17.20
2019-04-19T09:58:05.842Z,17.20
2019-04-19T10:00:26.834Z,17.60
2019-04-19T10:03:02.289Z,17.40
2019-04-19T10:05:28.614Z,18.00
2019-04-19T10:07:59.678Z,17.30
2019-04-19T10:10:33.355Z,17.70
2019-04-19T10:13:05.788Z,19.10
2019-04-19T10:15:58.608Z,19.70
2019-04-19T10:18:28.998Z,18.30
2019-04-19T10:21:36.717Z,18.60
2019-04-19T10:24:12.550Z,17.30
2019-04-19T10:26:52.612Z,17.50
2019-04-19T10:29:28.800Z,18.80
2019-04-19T10:32:06.618Z,18.40
2019-04-19T10:34:38.520Z,18.10
2019-04-19T10:37:10.924Z,18.30
2019-04-19T10:39:41.711Z,18.10
2019-04-19T10:42:12.929Z,17.30
2019-04-19T10:44:44.370Z,19.00
2019-04-19T10:47:15.059Z,18.70
2019-04-19T10:49:51.568Z,17.50
2019-04-19T10:52:25.790Z,17.20
2019-04-19T10:54:59.454Z,17.00
2019-04-19T10:57:31.500Z,17.30
2019-04-19T11:00:04.400Z,17.80
2019-04-19T11:02:36.473Z,18.10
2019-04-19T11:05:09.226Z,18.10
2019-04-19T11:07:40.678Z,19.60
2019-04-19T11:10:13.716Z,19.60
2019-04-19T11:12:44.930Z,20.20
2019-04-19T11:15:16.208Z,21.70
2019-04-19T11:17:48.228Z,24.00
2019-04-19T11:20:30.989Z,24.30
2019-04-19T11:22:51.759Z,24.40
2019-04-19T11:25:22.487Z,25.70
2019-04-19T11:27:54.740Z,25.30
2019-04-19T11:30:37.064Z,25.90
2019-04-19T11:33:14.939Z,28.30
2019-04-19T11:35:53.085Z,26.20
2019-04-19T11:38:25.070Z,25.90
2019-04-19T11:40:57.541Z,26.70
2019-04-19T11:43:29.431Z,26.80
2019-04-19T11:46:00.462Z,26.20
2019-04-19T11:48:33.060Z,26.70
2019-04-19T11:51:03.669Z,27.60
2019-04-19T11:53:48.666Z,26.60
2019-04-19T11:56:54.271Z,26.90
2019-04-19T11:59:45.863Z,27.60
2019-04-19T12:02:15.965Z,27.80
2019-04-19T12:04:48.421Z,26.80
2019-04-19T12:07:19.003Z,27.10
2019-04-19T12:09:50.421Z,27.20
2019-04-19T12:12:21.256Z,28.80
2019-04-19T12:14:52.151Z,26.30
2019-04-19T12:17:25.153Z,26.40
2019-04-19T12:20:01.971Z,28.00
2019-04-19T12:22:28.464Z,27.20
2019-04-19T12:24:59.601Z,25.80
2019-04-19T12:27:31.739Z,26.30
2019-04-19T12:30:02.478Z,26.70
2019-04-19T12:32:48.544Z,27.20
2019-04-19T12:35:19.081Z,27.30
2019-04-19T12:37:51.169Z,25.60
2019-04-19T12:40:23.118Z,26.30
2019-04-19T12:42:53.957Z,25.70
2019-04-19T12:45:26.178Z,26.30
2019-04-19T12:47:57.179Z,26.80
2019-04-19T12:50:29.413Z,26.40
2019-04-19T12:53:02.130Z,25.60
2019-04-19T12:55:33.171Z,26.10
2019-04-19T12:58:04.303Z,25.80
2019-04-19T13:01:00.184Z,26.30
2019-04-19T13:03:48.431Z,26.70
2019-04-19T13:06:22.010Z,25.90
2019-04-19T13:08:52.946Z,27.20
2019-04-19T13:11:25.050Z,27.10
2019-04-19T13:13:57.522Z,26.70
2019-04-19T13:16:28.374Z,26.20
2019-04-19T13:19:00.412Z,26.00
2019-04-19T13:21:32.295Z,26.70
2019-04-19T13:24:04.523Z,26.30
2019-04-19T13:26:35.649Z,27.70
2019-04-19T13:29:07.257Z,28.80
2019-04-19T13:31:38.802Z,27.60
2019-04-19T13:34:09.582Z,26.20
2019-04-19T13:36:57.778Z,25.80
2019-04-19T13:39:36.259Z,26.30
2019-04-19T13:42:10.870Z,27.10
2019-04-19T13:44:42.940Z,27.20
2019-04-19T13:47:14.383Z,26.80
2019-04-19T13:49:44.958Z,26.70
2019-04-19T13:52:16.622Z,25.70
2019-04-19T13:54:48.499Z,26.10
2019-04-19T13:57:19.776Z,26.50
2019-04-19T13:59:57.702Z,25.40
2019-04-19T14:02:25.258Z,26.60
2019-04-19T14:04:56.144Z,27.10
2019-04-19T14:07:27.168Z,25.80
2019-04-19T14:09:59.092Z,26.00
2019-04-19T14:12:31.036Z,26.90
2019-04-19T14:15:02.794Z,27.40
2019-04-19T14:17:33.781Z,26.00
2019-04-19T14:20:05.218Z,26.30
2019-04-19T14:22:35.713Z,26.90
2019-04-19T14:25:07.498Z,26.60
2019-04-19T14:27:39.475Z,26.40
2019-04-19T14:30:11.249Z,27.30
2019-04-19T14:32:41.786Z,26.20
2019-04-19T14:35:14.111Z,26.20
2019-04-19T14:37:46.058Z,26.10
2019-04-19T14:40:19.625Z,26.70
2019-04-19T14:42:50.822Z,26.60
2019-04-19T14:45:23.848Z,26.10
2019-04-19T14:47:54.990Z,26.60
2019-04-19T14:50:39.687Z,26.80
2019-04-19T14:52:59.373Z,27.40
2019-04-19T14:55:30.204Z,27.20
2019-04-19T14:58:01.053Z,25.40
2019-04-19T15:00:32.736Z,25.90
2019-04-19T15:03:12.742Z,25.80
2019-04-19T15:05:45.780Z,25.50
2019-04-19T15:08:16.817Z,26.00
2019-04-19T15:10:47.819Z,26.00
2019-04-19T15:13:18.905Z,26.30
2019-04-19T15:15:49.977Z,26.30
2019-04-19T15:18:21.115Z,26.70
2019-04-19T15:20:57.254Z,26.60
2019-04-19T15:23:26.815Z,26.80
2019-04-19T15:25:58.384Z,25.30
2019-04-19T15:28:29.397Z,25.40
2019-04-19T15:31:00.412Z,25.30
2019-04-19T15:33:32.219Z,25.30
2019-04-19T15:36:04.663Z,25.50
2019-04-19T15:38:35.840Z,25.60
2019-04-19T15:41:06.589Z,25.90
2019-04-19T15:43:38.409Z,26.40
2019-04-19T15:46:09.384Z,26.20
2019-04-19T15:48:45.684Z,25.50
2019-04-19T15:51:22.093Z,25.70
2019-04-19T15:53:45.574Z,26.40
2019-04-19T15:56:16.427Z,26.20
2019-04-19T15:58:47.427Z,25.80
2019-04-19T16:01:21.907Z,26.00
2019-04-19T16:03:59.992Z,25.30
2019-04-19T16:06:56.352Z,25.50
2019-04-19T16:09:49.378Z,26.20
2019-04-19T16:12:29.360Z,25.00
2019-04-19T16:14:59.915Z,25.40
2019-04-19T16:17:31.423Z,25.20
2019-04-19T16:20:03.280Z,25.20
2019-04-19T16:22:34.120Z,25.50
2019-04-19T16:25:05.268Z,25.90
2019-04-19T16:27:35.846Z,25.80
2019-04-19T16:30:08.028Z,26.50
2019-04-19T16:32:39.097Z,26.70
2019-04-19T16:35:10.004Z,26.30
2019-04-19T16:37:40.677Z,26.70
2019-04-19T16:40:18.613Z,25.60
2019-04-19T16:42:49.745Z,26.30
2019-04-19T16:45:23.976Z,25.60
2019-04-19T16:47:55.551Z,25.40
2019-04-19T16:50:26.178Z,26.40
2019-04-19T16:52:56.846Z,27.40
2019-04-19T16:55:27.699Z,27.50
2019-04-19T16:57:58.863Z,27.10
2019-04-19T17:00:45.120Z,25.30
2019-04-19T17:03:17.150Z,26.00
2019-04-19T17:05:48.775Z,25.00
2019-04-19T17:08:19.683Z,26.50
2019-04-19T17:10:50.478Z,29.50
2019-04-19T17:13:21.039Z,32.50
2019-04-19T17:16:11.454Z,26.10
2019-04-19T17:19:03.154Z,31.00
2019-04-19T17:21:45.217Z,28.50
2019-04-19T17:24:07.134Z,28.70
2019-04-19T17:26:37.972Z,30.40
2019-04-19T17:29:08.905Z,32.10
2019-04-19T17:31:40.309Z,35.00
2019-04-19T17:34:11.990Z,34.00
2019-04-19T17:36:44.263Z,34.50
2019-04-19T17:39:15.040Z,36.00
2019-04-19T17:41:46.255Z,36.80
2019-04-19T17:44:17.537Z,37.70
2019-04-19T17:46:48.832Z,37.40
2019-04-19T17:49:20.358Z,38.60
2019-04-19T17:52:04.336Z,38.40
2019-04-19T17:54:45.766Z,39.40
2019-04-19T17:56:57.390Z,39.40
2019-04-19T17:59:28.163Z,39.10
2019-04-19T18:01:59.117Z,39.30
2019-04-19T18:04:30.277Z,40.00
2019-04-19T18:07:03.061Z,40.30
2019-04-19T18:09:33.171Z,40.00
2019-04-19T18:12:03.731Z,39.70
2019-04-19T18:14:35.797Z,40.20
2019-04-19T18:17:06.477Z,40.00
2019-04-19T18:19:38.844Z,40.10
2019-04-19T18:22:17.216Z,40.60
2019-04-19T18:24:50.008Z,40.20
2019-04-19T18:27:18.856Z,40.60
2019-04-19T18:29:46.302Z,40.50
2019-04-19T18:32:32.212Z,39.30
2019-04-19T18:35:07.809Z,39.50
2019-04-19T18:37:39.618Z,38.60
2019-04-19T18:40:09.304Z,40.50
2019-04-19T18:42:51.151Z,40.60
2019-04-19T18:45:16.890Z,41.70
2019-04-19T18:47:45.621Z,41.80
2019-04-19T18:50:18.280Z,42.00
2019-04-19T18:52:53.498Z,42.10
2019-04-19T18:55:29.600Z,42.20
2019-04-19T18:57:54.181Z,42.60
2019-04-19T19:00:26.814Z,42.20
2019-04-19T19:03:01.822Z,42.20
2019-04-19T19:05:30.226Z,42.10
2019-04-19T19:08:06.498Z,41.90
2019-04-19T19:10:39.557Z,42.60
2019-04-19T19:13:06.506Z,43.30
2019-04-19T19:15:43.192Z,43.20
2019-04-19T19:18:11.071Z,44.00
2019-04-19T19:20:51.746Z,43.90
2019-04-19T19:23:28.074Z,44.40
2019-04-19T19:25:55.271Z,44.90
2019-04-19T19:28:21.616Z,44.90
2019-04-19T19:30:53.071Z,44.50
2019-04-19T19:33:34.176Z,45.00
2019-04-19T19:36:01.043Z,45.30
2019-04-19T19:38:33.735Z,45.40
2019-04-19T19:41:17.614Z,45.40
2019-04-19T19:43:52.728Z,45.60
2019-04-19T19:46:34.041Z,46.00
2019-04-19T19:49:25.085Z,45.90
2019-04-19T19:51:29.349Z,45.90
2019-04-19T19:54:28.703Z,46.10
2019-04-19T19:56:43.160Z,45.90
2019-04-19T19:59:12.365Z,46.00
2019-04-19T20:01:36.488Z,46.00
2019-04-19T20:04:00.399Z,46.30
2019-04-19T20:06:32.873Z,46.60
2019-04-19T20:09:09.361Z,46.40
2019-04-19T20:11:37.793Z,46.80
2019-04-19T20:14:15.620Z,46.90
2019-04-19T20:16:43.362Z,47.30
2019-04-19T20:19:17.287Z,48.00
2019-04-19T20:21:54.092Z,47.80
2019-04-19T20:24:35.294Z,47.50
2019-04-19T20:27:04.958Z,47.80
2019-04-19T20:29:29.710Z,48.00
2019-04-19T20:31:56.559Z,47.80
2019-04-19T20:34:31.657Z,48.00
2019-04-19T20:37:00.041Z,48.70
2019-04-19T20:39:33.588Z,48.40
2019-04-19T20:42:06.084Z,48.60
2019-04-19T20:44:52.680Z,49.20
2019-04-19T20:47:08.395Z,49.10
2019-04-19T20:49:42.671Z,49.30
2019-04-19T20:52:24.720Z,49.30
2019-04-19T20:55:11.520Z,49.90
2019-04-19T20:57:48.688Z,50.00
2019-04-19T21:00:14.406Z,50.50
2019-04-19T21:02:45.841Z,50.40
2019-04-19T21:05:17.819Z,50.90
2019-04-19T21:07:56.330Z,51.40
2019-04-19T21:10:24.356Z,51.70
2019-04-19T21:13:02.968Z,51.90
2019-04-19T21:15:34.605Z,52.10
2019-04-19T21:18:01.299Z,51.90
2019-04-19T21:20:32.712Z,52.30
2019-04-19T21:23:11.202Z,52.40
2019-04-19T21:25:44.827Z,52.30
2019-04-19T21:28:08.596Z,53.20
2019-04-19T21:30:47.049Z,53.50
2019-04-19T21:33:15.480Z,53.80
2019-04-19T21:35:53.438Z,54.10
2019-04-19T21:38:23.112Z,54.10
2019-04-19T21:40:53.098Z,53.50
2019-04-19T21:43:28.459Z,54.00
2019-04-19T21:45:57.190Z,53.80
2019-04-19T21:48:34.825Z,54.30
2019-04-19T21:51:01.943Z,54.50
2019-04-19T21:53:37.079Z,54.60
2019-04-19T21:56:09.858Z,54.50
2019-04-19T21:58:40.652Z,55.30
2019-04-19T22:01:15.528Z,55.40
2019-04-19T22:03:44.279Z,55.50
2019-04-19T22:06:21.361Z,55.60
2019-04-19T22:08:48.201Z,55.90
2019-04-19T22:11:18.824Z,56.30
2019-04-19T22:13:53.479Z,56.50
2019-04-19T22:16:31.397Z,55.90
2019-04-19T22:18:56.066Z,56.40
2019-04-19T22:21:30.351Z,56.80
2019-04-19T22:23:58.554Z,57.10
2019-04-19T22:26:34.306Z,57.10
2019-04-19T22:29:01.703Z,58.00
2019-04-19T22:31:34.721Z,56.80
2019-04-19T22:34:06.336Z,57.90
2019-04-19T22:36:42.849Z,58.20
2019-04-19T22:39:11.633Z,58.80
2019-04-19T22:41:43.185Z,59.60
2019-04-19T22:44:14.479Z,60.00
2019-04-19T22:46:50.616Z,60.10
2019-04-19T22:49:18.209Z,60.00
2019-04-19T22:51:48.950Z,60.80
2019-04-19T22:54:19.494Z,60.80
2019-04-19T22:57:00.504Z,61.60
2019-04-19T22:59:23.712Z,61.40
2019-04-19T23:02:14.316Z,61.80
2019-04-19T23:04:49.292Z,61.50
2019-04-19T23:07:18.644Z,62.90
2019-04-19T23:09:50.769Z,62.70
2019-04-19T23:12:22.602Z,62.70
2019-04-19T23:14:53.274Z,64.30
2019-04-19T23:17:29.171Z,64.00
2019-04-19T23:19:57.323Z,63.80
2019-04-19T23:22:34.100Z,64.80
2019-04-19T23:25:04.476Z,64.20
2019-04-19T23:27:40.800Z,65.50
2019-04-19T23:30:22.254Z,65.60
2019-04-19T23:32:50.476Z,65.90
2019-04-19T23:35:28.678Z,65.30
2019-04-19T23:37:53.695Z,66.30
2019-04-19T23:40:30.077Z,65.60
2019-04-19T23:42:58.293Z,66.60
2019-04-19T23:45:33.971Z,66.90
2019-04-19T23:48:02.541Z,66.90
2019-04-19T23:50:37.939Z,66.60
2019-04-19T23:53:06.203Z,67.10
2019-04-19T23:55:36.775Z,66.90
2019-04-19T23:58:13.089Z,68.40
